METAR Data
IDs: Format: Raw Decoded Include TAF

Data at: 0109 UTC 24 Mar 2019

METAR for:KRYW (Lago Vista/Allen Arp, TX, US)
Text:KRYW 240055Z AUTO 18005KT 10SM OVC029 20/15 A3006 RMK AO2 T01970150
Temperature: 19.7°C ( 67°F)
Dewpoint: 15.0°C ( 59°F) [RH = 74%]
Pressure (altimeter):30.06 inches Hg (1018.0 mb)
Winds:from the S (180 degrees) at 6 MPH (5 knots; 2.6 m/s)
Visibility:10 or more sm (16+ km)
Ceiling:2900 feet AGL
Clouds: overcast cloud deck at 2900 feet AGL
QC Flag:automated observation with no human augmentation